createdAt,value
2018-08-06T00:01:21.015Z,20.70
2018-08-06T00:03:49.743Z,20.70
2018-08-06T00:06:18.365Z,20.60
2018-08-06T00:08:47.088Z,20.50
2018-08-06T00:11:15.697Z,20.50
2018-08-06T00:16:14.635Z,20.40
2018-08-06T00:18:43.236Z,20.40
2018-08-06T00:21:11.870Z,20.50
2018-08-06T00:23:40.424Z,20.50
2018-08-06T00:26:09.071Z,20.50
2018-08-06T00:28:37.672Z,20.50
2018-08-06T00:31:06.277Z,20.50
2018-08-06T00:33:34.945Z,20.40
2018-08-06T00:36:03.710Z,20.40
2018-08-06T00:38:32.314Z,20.40
2018-08-06T00:41:00.962Z,20.50
2018-08-06T00:43:29.647Z,20.50
2018-08-06T00:45:58.338Z,20.60
2018-08-06T00:48:27.017Z,20.50
2018-08-06T00:50:55.778Z,20.50
2018-08-06T00:53:24.453Z,20.50
2018-08-06T00:55:53.071Z,20.50
2018-08-06T00:58:21.684Z,20.50
2018-08-06T01:00:50.281Z,20.40
2018-08-06T01:03:18.874Z,20.30
2018-08-06T01:05:47.520Z,20.20
2018-08-06T01:08:16.038Z,20.20
2018-08-06T01:10:44.745Z,20.20
2018-08-06T01:13:13.380Z,20.10
2018-08-06T01:15:41.999Z,20.20
2018-08-06T01:18:10.585Z,20.10
2018-08-06T01:20:39.217Z,20.10
2018-08-06T01:23:07.921Z,20.10
2018-08-06T01:25:36.596Z,20.10
2018-08-06T01:28:05.217Z,20.00
2018-08-06T01:30:33.885Z,19.90
2018-08-06T01:33:15.924Z,19.90
2018-08-06T01:35:44.654Z,19.80
2018-08-06T01:38:13.246Z,19.70
2018-08-06T01:40:41.891Z,19.60
2018-08-06T01:43:10.506Z,19.50
2018-08-06T01:45:44.181Z,19.40
2018-08-06T01:48:12.756Z,19.40
2018-08-06T01:50:41.388Z,19.40
2018-08-06T01:53:10.025Z,19.40
2018-08-06T01:55:38.619Z,19.30
2018-08-06T01:58:07.216Z,19.40
2018-08-06T02:00:35.873Z,19.50
2018-08-06T02:03:08.286Z,19.50
2018-08-06T02:05:37.038Z,19.50
2018-08-06T02:08:05.855Z,19.60
2018-08-06T02:10:34.427Z,19.60
2018-08-06T02:13:03.109Z,19.60
2018-08-06T02:18:00.060Z,19.70
2018-08-06T02:20:28.692Z,19.60
2018-08-06T02:22:57.502Z,19.60
2018-08-06T02:25:26.184Z,19.60
2018-08-06T02:27:54.841Z,19.60
2018-08-06T02:30:23.406Z,19.60
2018-08-06T02:32:52.059Z,19.60
2018-08-06T02:35:20.707Z,19.60
2018-08-06T02:37:49.417Z,19.50
2018-08-06T02:40:20.052Z,19.50
2018-08-06T02:42:52.563Z,19.40
2018-08-06T02:45:21.297Z,19.40
2018-08-06T02:47:49.955Z,19.30
2018-08-06T02:50:18.580Z,19.20
2018-08-06T02:52:47.259Z,19.10
2018-08-06T02:55:16.681Z,19.10
2018-08-06T02:57:45.377Z,19.00
2018-08-06T03:00:16.499Z,18.90
2018-08-06T03:02:48.772Z,18.80
2018-08-06T03:05:18.591Z,18.70
2018-08-06T03:07:47.467Z,18.70
2018-08-06T03:10:16.273Z,18.70
2018-08-06T03:12:45.840Z,18.80
2018-08-06T03:15:14.483Z,18.80
2018-08-06T03:17:43.117Z,18.80
2018-08-06T03:20:13.145Z,18.70
2018-08-06T03:22:41.803Z,18.70
2018-08-06T03:25:12.571Z,18.60
2018-08-06T03:27:41.734Z,18.60
2018-08-06T03:30:12.720Z,18.70
2018-08-06T03:32:41.589Z,18.60
2018-08-06T03:35:11.377Z,18.60
2018-08-06T03:37:40.027Z,18.60
2018-08-06T03:40:09.229Z,18.50
2018-08-06T03:42:37.881Z,18.50
2018-08-06T03:45:08.352Z,18.50
2018-08-06T03:50:06.469Z,18.50
2018-08-06T03:52:35.192Z,18.50
2018-08-06T03:55:04.154Z,18.60
2018-08-06T03:57:32.787Z,18.60
2018-08-06T04:00:01.357Z,18.60
2018-08-06T04:02:29.959Z,18.70
2018-08-06T04:04:58.589Z,18.60
2018-08-06T04:07:28.224Z,18.60
2018-08-06T04:09:56.784Z,18.60
2018-08-06T04:12:25.483Z,18.60
2018-08-06T04:14:54.123Z,18.60
2018-08-06T04:17:22.923Z,18.60
2018-08-06T04:19:51.678Z,18.60
2018-08-06T04:22:20.404Z,18.50
2018-08-06T04:24:50.221Z,18.60
2018-08-06T04:27:18.841Z,18.60
2018-08-06T04:29:47.439Z,18.60
2018-08-06T04:32:16.149Z,18.60
2018-08-06T04:37:13.169Z,18.60
2018-08-06T04:39:41.825Z,18.60
2018-08-06T04:42:10.517Z,18.60
2018-08-06T04:44:39.192Z,18.70
2018-08-06T04:47:07.887Z,18.60
2018-08-06T04:49:36.545Z,18.60
2018-08-06T04:54:33.540Z,18.60
2018-08-06T04:57:02.248Z,18.70
2018-08-06T04:59:30.960Z,18.70
2018-08-06T05:01:59.645Z,18.80
2018-08-06T05:04:28.348Z,18.80
2018-08-06T05:06:57.153Z,18.90
2018-08-06T05:09:26.006Z,18.90
2018-08-06T05:11:54.612Z,18.90
2018-08-06T05:14:29.378Z,18.90
2018-08-06T05:16:58.191Z,19.00
2018-08-06T05:19:27.048Z,19.10
2018-08-06T05:21:59.699Z,19.20
2018-08-06T05:24:28.502Z,19.30
2018-08-06T05:26:57.286Z,19.40
2018-08-06T05:29:27.173Z,19.50
2018-08-06T05:31:55.778Z,19.60
2018-08-06T05:34:24.385Z,19.80
2018-08-06T05:36:53.085Z,19.90
2018-08-06T05:39:21.704Z,20.00
2018-08-06T05:41:50.335Z,20.00
2018-08-06T05:44:18.977Z,20.10
2018-08-06T05:46:47.620Z,20.20
2018-08-06T05:49:24.355Z,20.30
2018-08-06T05:51:52.848Z,20.40
2018-08-06T05:54:21.523Z,20.50
2018-08-06T05:56:50.181Z,20.60
2018-08-06T05:59:18.773Z,20.70
2018-08-06T06:01:47.459Z,20.80
2018-08-06T06:04:16.063Z,20.90
2018-08-06T06:06:44.799Z,21.10
2018-08-06T06:09:13.431Z,21.20
2018-08-06T06:11:41.982Z,21.40
2018-08-06T06:14:10.638Z,21.50
2018-08-06T06:16:39.337Z,21.60
2018-08-06T06:19:07.993Z,21.70
2018-08-06T06:21:36.543Z,21.80
2018-08-06T06:24:05.311Z,22.00
2018-08-06T06:26:33.917Z,22.20
2018-08-06T06:29:02.560Z,22.30
2018-08-06T06:31:31.138Z,22.40
2018-08-06T06:34:03.366Z,22.50
2018-08-06T06:36:31.924Z,22.70
2018-08-06T06:39:00.536Z,22.80
2018-08-06T06:41:29.172Z,22.90
2018-08-06T06:43:57.738Z,23.00
2018-08-06T06:46:26.345Z,23.10
2018-08-06T06:48:55.153Z,23.30
2018-08-06T06:51:23.608Z,23.50
2018-08-06T06:53:52.214Z,23.60
2018-08-06T06:56:20.768Z,23.70
2018-08-06T06:58:49.602Z,23.80
2018-08-06T07:01:18.207Z,24.00
2018-08-06T07:03:46.911Z,24.10
2018-08-06T07:06:15.617Z,24.20
2018-08-06T07:08:44.181Z,24.40
2018-08-06T07:11:12.820Z,24.50
2018-08-06T07:13:41.508Z,24.50
2018-08-06T07:16:10.179Z,24.60
2018-08-06T07:18:39.953Z,24.70
2018-08-06T07:21:08.576Z,24.80
2018-08-06T07:23:37.227Z,24.90
2018-08-06T07:26:06.005Z,24.90
2018-08-06T07:28:34.612Z,25.00
2018-08-06T07:31:03.420Z,25.20
2018-08-06T07:33:42.241Z,25.40
2018-08-06T07:36:10.912Z,25.60
2018-08-06T07:38:39.508Z,25.70
2018-08-06T07:41:08.110Z,25.80
2018-08-06T07:43:36.667Z,25.90
2018-08-06T07:46:05.542Z,26.10
2018-08-06T07:48:34.229Z,26.20
2018-08-06T07:51:02.952Z,26.30
2018-08-06T07:53:31.536Z,26.40
2018-08-06T07:56:00.154Z,26.60
2018-08-06T07:58:38.938Z,26.70
2018-08-06T08:01:07.597Z,26.80
2018-08-06T08:03:36.209Z,26.90
2018-08-06T08:06:04.800Z,27.10
2018-08-06T08:08:33.375Z,27.10
2018-08-06T08:11:01.977Z,27.20
2018-08-06T08:13:31.573Z,27.40
2018-08-06T08:16:00.239Z,27.60
2018-08-06T08:18:28.830Z,27.90
2018-08-06T08:21:01.031Z,28.10
2018-08-06T08:23:29.694Z,28.20
2018-08-06T08:25:58.337Z,28.10
2018-08-06T08:28:27.021Z,28.30
2018-08-06T08:30:55.725Z,28.40
2018-08-06T08:33:24.357Z,28.60
2018-08-06T08:35:53.093Z,28.80
2018-08-06T08:38:21.738Z,29.00
2018-08-06T08:40:50.373Z,29.30
2018-08-06T08:43:19.069Z,29.30
2018-08-06T08:45:47.671Z,29.40
2018-08-06T08:48:16.325Z,29.50
2018-08-06T08:50:44.960Z,29.60
2018-08-06T08:53:13.660Z,29.60
2018-08-06T08:55:42.261Z,29.80
2018-08-06T08:58:10.869Z,29.80
2018-08-06T09:00:39.463Z,30.00
2018-08-06T09:03:08.058Z,29.90
2018-08-06T09:05:36.661Z,29.90
2018-08-06T09:08:19.605Z,29.90
2018-08-06T09:13:16.489Z,30.30
2018-08-06T09:15:45.121Z,30.40
2018-08-06T09:18:13.781Z,30.40
2018-08-06T09:20:42.374Z,30.40
2018-08-06T09:23:10.975Z,30.50
2018-08-06T09:25:39.565Z,30.80
2018-08-06T09:30:36.527Z,30.80
2018-08-06T09:33:08.919Z,30.70
2018-08-06T09:38:06.209Z,31.00
2018-08-06T09:40:34.911Z,31.10
2018-08-06T09:43:03.529Z,31.30
2018-08-06T09:45:32.147Z,31.40
2018-08-06T09:48:00.745Z,31.40
2018-08-06T09:50:29.475Z,31.50
2018-08-06T09:52:58.213Z,31.70
2018-08-06T09:57:56.363Z,31.70
2018-08-06T10:00:30.346Z,31.90
2018-08-06T10:03:00.261Z,32.00
2018-08-06T10:05:29.285Z,32.00
2018-08-06T10:07:57.893Z,32.30
2018-08-06T10:10:26.540Z,32.50
2018-08-06T10:12:55.121Z,32.60
2018-08-06T10:15:23.756Z,32.60
2018-08-06T10:17:53.704Z,32.80
2018-08-06T10:20:23.521Z,33.00
2018-08-06T10:22:52.204Z,33.00
2018-08-06T10:25:20.796Z,33.10
2018-08-06T10:27:49.531Z,33.10
2018-08-06T10:30:19.571Z,33.20
2018-08-06T10:32:48.229Z,33.20
2018-08-06T10:35:17.861Z,33.30
2018-08-06T10:37:46.923Z,33.20
2018-08-06T10:40:18.270Z,33.20
2018-08-06T10:42:47.153Z,33.30
2018-08-06T10:45:17.298Z,33.30
2018-08-06T10:47:46.375Z,33.40
2018-08-06T10:50:15.228Z,33.60
2018-08-06T10:52:44.178Z,33.80
2018-08-06T10:55:13.442Z,34.00
2018-08-06T10:57:43.549Z,34.20
2018-08-06T11:00:16.616Z,34.20
2018-08-06T11:02:45.669Z,34.10
2018-08-06T11:05:15.538Z,34.20
2018-08-06T11:07:44.621Z,34.10
2018-08-06T11:10:17.675Z,34.00
2018-08-06T11:12:46.673Z,33.90
2018-08-06T11:15:17.708Z,33.80
2018-08-06T11:17:46.738Z,33.70
2018-08-06T11:20:16.524Z,33.80
2018-08-06T11:22:52.319Z,33.90
2018-08-06T11:25:22.278Z,34.00
2018-08-06T11:27:51.219Z,34.00
2018-08-06T11:30:21.439Z,33.80
2018-08-06T11:32:51.000Z,33.90
2018-08-06T11:35:19.996Z,34.10
2018-08-06T11:37:48.935Z,34.00
2018-08-06T11:40:18.319Z,34.10
2018-08-06T11:42:47.863Z,34.00
2018-08-06T11:45:17.826Z,34.30
2018-08-06T11:47:46.829Z,34.30
2018-08-06T11:50:16.859Z,34.10
2018-08-06T11:52:45.879Z,34.20
2018-08-06T11:55:14.769Z,34.40
2018-08-06T11:57:43.692Z,34.70
2018-08-06T12:00:15.801Z,34.80
2018-08-06T12:02:44.734Z,35.00
2018-08-06T12:07:42.055Z,35.30
2018-08-06T12:10:12.968Z,35.40
2018-08-06T12:12:42.388Z,35.50
2018-08-06T12:15:11.363Z,35.40
2018-08-06T12:17:44.092Z,35.50
2018-08-06T12:20:15.451Z,35.50
2018-08-06T12:22:45.444Z,35.60
2018-08-06T12:25:14.820Z,35.60
2018-08-06T12:27:44.084Z,35.60
2018-08-06T12:30:15.791Z,35.60
2018-08-06T12:32:45.209Z,35.80
2018-08-06T12:35:14.197Z,35.70
2018-08-06T12:37:43.150Z,35.70
2018-08-06T12:40:14.981Z,35.70
2018-08-06T12:42:43.758Z,35.80
2018-08-06T12:45:14.440Z,36.00
2018-08-06T12:47:43.607Z,36.20
2018-08-06T12:50:13.260Z,36.30
2018-08-06T12:52:42.698Z,36.50
2018-08-06T12:55:12.696Z,36.50
2018-08-06T12:57:42.122Z,36.40
2018-08-06T13:00:26.853Z,36.60
2018-08-06T13:02:55.990Z,36.70
2018-08-06T13:05:25.301Z,36.60
2018-08-06T13:07:53.921Z,36.70
2018-08-06T13:10:26.755Z,36.70
2018-08-06T13:12:55.393Z,36.60
2018-08-06T13:15:23.944Z,36.40
2018-08-06T13:17:52.533Z,36.50
2018-08-06T13:20:21.163Z,36.40
2018-08-06T13:22:49.783Z,36.20
2018-08-06T13:25:18.417Z,36.10
2018-08-06T13:27:46.997Z,36.10
2018-08-06T13:30:16.127Z,36.20
2018-08-06T13:32:45.294Z,36.30
2018-08-06T13:35:14.836Z,36.30
2018-08-06T13:37:43.467Z,36.20
2018-08-06T13:40:12.598Z,36.40
2018-08-06T13:42:41.191Z,36.60
2018-08-06T13:45:11.943Z,36.80
2018-08-06T13:47:40.573Z,36.90
2018-08-06T13:50:10.060Z,36.90
2018-08-06T13:55:08.958Z,37.20
2018-08-06T13:57:37.893Z,37.30
2018-08-06T14:00:12.859Z,37.20
2018-08-06T14:02:41.440Z,37.20
2018-08-06T14:05:11.585Z,37.20
2018-08-06T14:07:40.144Z,37.30
2018-08-06T14:10:09.602Z,36.80
2018-08-06T14:12:38.825Z,36.80
2018-08-06T14:15:09.395Z,37.00
2018-08-06T14:17:38.947Z,37.00
2018-08-06T14:20:08.189Z,36.90
2018-08-06T14:22:37.448Z,37.00
2018-08-06T14:25:07.481Z,36.80
2018-08-06T14:27:36.086Z,36.60
2018-08-06T14:30:06.736Z,36.70
2018-08-06T14:32:35.448Z,36.80
2018-08-06T14:35:04.530Z,36.80
2018-08-06T14:37:33.290Z,36.90
2018-08-06T14:40:02.195Z,36.90
2018-08-06T14:42:33.987Z,37.10
2018-08-06T14:45:02.607Z,37.20
2018-08-06T14:47:31.246Z,37.30
2018-08-06T14:52:28.057Z,37.30
2018-08-06T14:54:56.775Z,37.10
2018-08-06T14:57:25.384Z,37.00
2018-08-06T14:59:54.101Z,37.00
2018-08-06T15:02:22.678Z,37.00
2018-08-06T15:04:51.397Z,37.00
2018-08-06T15:07:20.045Z,36.90
2018-08-06T15:09:48.658Z,37.00
2018-08-06T15:12:17.290Z,36.80
2018-08-06T15:15:02.743Z,36.90
2018-08-06T15:17:31.314Z,36.80
2018-08-06T15:20:00.179Z,36.90
2018-08-06T15:22:28.712Z,36.80
2018-08-06T15:24:57.355Z,36.90
2018-08-06T15:27:25.961Z,36.80
2018-08-06T15:29:54.578Z,36.80
2018-08-06T15:32:23.164Z,36.80
2018-08-06T15:34:51.799Z,36.80
2018-08-06T15:37:20.523Z,36.80
2018-08-06T15:39:49.187Z,37.00
2018-08-06T15:42:17.778Z,37.10
2018-08-06T15:44:46.378Z,36.90
2018-08-06T15:49:43.173Z,36.80
2018-08-06T15:52:11.781Z,36.70
2018-08-06T15:54:40.368Z,36.60
2018-08-06T15:57:08.918Z,36.60
2018-08-06T15:59:37.617Z,36.60
2018-08-06T16:02:06.813Z,36.40
2018-08-06T16:04:35.389Z,36.60
2018-08-06T16:07:04.206Z,36.70
2018-08-06T16:09:32.790Z,37.10
2018-08-06T16:12:01.465Z,37.90
2018-08-06T16:14:31.148Z,38.30
2018-08-06T16:16:59.922Z,39.00
2018-08-06T16:21:57.025Z,40.40
2018-08-06T16:24:26.506Z,40.80
2018-08-06T16:26:55.108Z,41.30
2018-08-06T16:29:23.727Z,41.80
2018-08-06T16:31:52.476Z,41.90
2018-08-06T16:34:21.127Z,41.90
2018-08-06T16:39:18.045Z,42.30
2018-08-06T16:41:46.663Z,42.20
2018-08-06T16:44:15.350Z,42.10
2018-08-06T16:46:44.092Z,41.80
2018-08-06T16:49:13.667Z,41.50
2018-08-06T16:51:42.465Z,41.20
2018-08-06T16:54:11.175Z,41.10
2018-08-06T16:56:39.853Z,41.20
2018-08-06T16:59:08.505Z,41.40
2018-08-06T17:01:37.109Z,41.50
2018-08-06T17:04:05.919Z,41.20
2018-08-06T17:06:34.618Z,41.30
2018-08-06T17:09:03.389Z,41.00
2018-08-06T17:11:32.042Z,41.10
2018-08-06T17:14:01.665Z,41.00
2018-08-06T17:16:30.306Z,41.00
2018-08-06T17:18:59.984Z,41.00
2018-08-06T17:21:28.655Z,40.70
2018-08-06T17:23:57.334Z,40.40
2018-08-06T17:26:26.286Z,40.00
2018-08-06T17:28:54.895Z,39.80
2018-08-06T17:31:23.641Z,39.80
2018-08-06T17:33:52.296Z,39.80
2018-08-06T17:36:21.012Z,39.80
2018-08-06T17:38:49.621Z,39.40
2018-08-06T17:41:18.292Z,38.80
2018-08-06T17:43:46.946Z,38.40
2018-08-06T17:46:17.609Z,38.00
2018-08-06T17:48:46.281Z,37.70
2018-08-06T17:51:15.042Z,37.30
2018-08-06T17:53:47.034Z,36.50
2018-08-06T17:56:15.654Z,35.80
2018-08-06T17:58:45.460Z,35.40
2018-08-06T18:01:14.160Z,34.90
2018-08-06T18:03:42.939Z,34.50
2018-08-06T18:06:11.714Z,34.00
2018-08-06T18:08:40.499Z,33.80
2018-08-06T18:11:09.266Z,33.50
2018-08-06T18:13:37.952Z,33.20
2018-08-06T18:16:06.615Z,33.00
2018-08-06T18:18:35.570Z,32.70
2018-08-06T18:21:04.528Z,32.40
2018-08-06T18:23:33.417Z,32.20
2018-08-06T18:26:02.398Z,32.00
2018-08-06T18:28:31.303Z,31.70
2018-08-06T18:31:00.266Z,31.40
2018-08-06T18:33:29.217Z,31.10
2018-08-06T18:35:58.125Z,30.90
2018-08-06T18:38:27.198Z,30.70
2018-08-06T18:40:56.075Z,30.50
2018-08-06T18:43:25.158Z,30.40
2018-08-06T18:45:54.081Z,30.20
2018-08-06T18:48:23.072Z,30.00
2018-08-06T18:50:52.054Z,29.80
2018-08-06T18:53:20.999Z,29.60
2018-08-06T18:55:50.026Z,29.50
2018-08-06T18:58:19.146Z,29.30
2018-08-06T19:03:17.895Z,29.00
2018-08-06T19:05:47.020Z,28.80
2018-08-06T19:08:15.903Z,28.70
2018-08-06T19:10:44.723Z,28.60
2018-08-06T19:13:20.828Z,28.70
2018-08-06T19:15:49.665Z,28.60
2018-08-06T19:18:23.837Z,28.50
2018-08-06T19:20:52.546Z,28.50
2018-08-06T19:23:21.266Z,28.50
2018-08-06T19:28:18.176Z,28.60
2018-08-06T19:30:53.207Z,28.70
2018-08-06T19:33:21.956Z,28.70
2018-08-06T19:35:50.603Z,28.60
2018-08-06T19:38:19.244Z,28.50
2018-08-06T19:40:47.849Z,28.40
2018-08-06T19:43:21.841Z,28.20
2018-08-06T19:45:50.394Z,28.20
2018-08-06T19:48:18.965Z,28.20
2018-08-06T19:50:48.642Z,28.10
2018-08-06T19:53:17.359Z,28.10
2018-08-06T19:55:51.144Z,28.00
2018-08-06T19:58:19.749Z,27.80
2018-08-06T20:00:48.307Z,27.70
2018-08-06T20:03:16.965Z,27.70
2018-08-06T20:05:45.621Z,27.50
2018-08-06T20:08:14.272Z,27.30
2018-08-06T20:10:43.034Z,27.10
2018-08-06T20:13:11.720Z,26.80
2018-08-06T20:15:40.433Z,26.30
2018-08-06T20:18:09.159Z,25.90
2018-08-06T20:20:37.800Z,25.70
2018-08-06T20:23:06.509Z,25.50
2018-08-06T20:25:35.189Z,25.40
2018-08-06T20:28:03.912Z,25.30
2018-08-06T20:30:32.507Z,25.30
2018-08-06T20:33:01.145Z,25.20
2018-08-06T20:35:29.812Z,25.00
2018-08-06T20:37:58.462Z,24.90
2018-08-06T20:40:27.144Z,24.80
2018-08-06T20:42:55.673Z,24.70
2018-08-06T20:45:24.362Z,24.80
2018-08-06T20:47:52.953Z,24.70
2018-08-06T20:50:22.663Z,24.70
2018-08-06T20:52:52.332Z,24.50
2018-08-06T20:55:21.021Z,24.20
2018-08-06T20:57:50.328Z,24.20
2018-08-06T21:00:22.090Z,24.20
2018-08-06T21:02:51.236Z,24.20
2018-08-06T21:05:20.101Z,24.20
2018-08-06T21:07:48.897Z,24.20
2018-08-06T21:10:18.264Z,24.10
2018-08-06T21:12:47.291Z,24.10
2018-08-06T21:15:16.262Z,24.10
2018-08-06T21:17:45.248Z,24.20
2018-08-06T21:20:15.053Z,24.30
2018-08-06T21:22:46.785Z,24.30
2018-08-06T21:25:15.641Z,24.40
2018-08-06T21:27:45.410Z,24.40
2018-08-06T21:30:16.081Z,24.30
2018-08-06T21:32:48.374Z,24.30
2018-08-06T21:35:18.957Z,24.30
2018-08-06T21:37:48.842Z,24.30
2018-08-06T21:40:18.100Z,24.20
2018-08-06T21:42:46.810Z,24.10
2018-08-06T21:45:15.573Z,24.10
2018-08-06T21:47:44.537Z,24.00
2018-08-06T21:50:13.850Z,23.90
2018-08-06T21:52:42.605Z,23.60
2018-08-06T21:55:11.541Z,23.60
2018-08-06T21:57:40.306Z,23.40
2018-08-06T22:00:32.660Z,23.30
2018-08-06T22:03:02.546Z,23.10
2018-08-06T22:05:31.215Z,23.00
2018-08-06T22:07:59.895Z,23.00
2018-08-06T22:10:28.638Z,23.00
2018-08-06T22:12:59.413Z,22.80
2018-08-06T22:15:28.041Z,22.70
2018-08-06T22:17:56.804Z,22.70
2018-08-06T22:20:25.384Z,22.70
2018-08-06T22:22:54.591Z,22.70
2018-08-06T22:25:23.287Z,22.70
2018-08-06T22:27:51.974Z,22.60
2018-08-06T22:30:20.729Z,22.60
2018-08-06T22:32:49.335Z,22.50
2018-08-06T22:35:18.057Z,22.40
2018-08-06T22:37:46.777Z,22.30
2018-08-06T22:40:15.483Z,22.30
2018-08-06T22:42:43.993Z,22.30
2018-08-06T22:45:13.314Z,22.40
2018-08-06T22:47:43.136Z,22.50
2018-08-06T22:50:13.185Z,22.50
2018-08-06T22:52:41.994Z,22.40
2018-08-06T22:55:11.930Z,22.40
2018-08-06T22:57:40.941Z,22.30
2018-08-06T23:00:12.797Z,22.30
2018-08-06T23:02:41.784Z,22.30
2018-08-06T23:05:11.566Z,22.20
2018-08-06T23:07:40.278Z,22.20
2018-08-06T23:10:11.105Z,22.20
2018-08-06T23:12:39.799Z,22.30
2018-08-06T23:15:11.093Z,22.30
2018-08-06T23:17:39.757Z,22.30
2018-08-06T23:20:09.032Z,22.20
2018-08-06T23:22:37.911Z,22.10
2018-08-06T23:25:07.363Z,22.10
2018-08-06T23:27:36.696Z,22.00
2018-08-06T23:30:07.906Z,22.00
2018-08-06T23:32:36.626Z,22.00
2018-08-06T23:35:06.911Z,21.90
2018-08-06T23:37:35.596Z,21.90
2018-08-06T23:40:04.720Z,21.90
2018-08-06T23:42:33.380Z,21.90
2018-08-06T23:45:02.082Z,21.90
2018-08-06T23:47:30.657Z,21.80
2018-08-06T23:49:59.307Z,21.60
2018-08-06T23:52:27.979Z,21.60
2018-08-06T23:54:56.589Z,21.60
2018-08-06T23:57:25.239Z,21.60
2018-08-06T23:59:53.877Z,21.60
